createdAt,value
2022-12-28T00:00:14.271Z,-0.64
2022-12-28T00:01:35.078Z,-0.58
2022-12-28T00:02:14.013Z,-0.56
2022-12-28T00:03:13.911Z,-0.54
2022-12-28T00:04:13.807Z,-0.51
2022-12-28T00:05:13.724Z,-0.58
2022-12-28T00:06:13.634Z,-0.59
2022-12-28T00:07:34.527Z,-0.54
2022-12-28T00:08:13.474Z,-0.43
2022-12-28T00:09:13.370Z,-0.47
2022-12-28T00:10:13.301Z,-0.51
2022-12-28T00:11:18.625Z,-0.47
2022-12-28T00:12:13.113Z,-0.58
2022-12-28T00:13:34.008Z,-0.66
2022-12-28T00:14:12.944Z,-0.53
2022-12-28T00:15:12.850Z,-0.59
2022-12-28T00:16:12.799Z,-0.74
2022-12-28T00:17:12.680Z,-0.82
2022-12-28T00:18:12.585Z,-0.77
2022-12-28T00:19:33.491Z,-0.83
2022-12-28T00:20:12.428Z,-0.84
2022-12-28T00:21:12.333Z,-0.82
2022-12-28T00:22:12.250Z,-0.83
2022-12-28T00:23:12.163Z,-0.87
2022-12-28T00:24:12.075Z,-0.86
2022-12-28T00:25:32.949Z,-0.95
2022-12-28T00:26:11.918Z,-1.05
2022-12-28T00:27:11.811Z,-1.03
2022-12-28T00:28:11.728Z,-0.98
2022-12-28T00:29:11.636Z,-1.01
2022-12-28T00:30:11.545Z,-0.91
2022-12-28T00:31:32.516Z,-0.96
2022-12-28T00:32:11.385Z,-0.79
2022-12-28T00:33:11.282Z,-0.76
2022-12-28T00:34:11.191Z,-0.72
2022-12-28T00:35:11.113Z,-0.68
2022-12-28T00:36:11.027Z,-0.69
2022-12-28T00:37:31.922Z,-0.65
2022-12-28T00:38:10.861Z,-0.66
2022-12-28T00:39:10.762Z,-0.69
2022-12-28T00:40:10.680Z,-0.65
2022-12-28T00:41:10.585Z,-0.69
2022-12-28T00:42:10.517Z,-0.72
2022-12-28T00:43:31.395Z,-0.77
2022-12-28T00:44:10.332Z,-0.79
2022-12-28T00:45:10.244Z,-0.80
2022-12-28T00:46:10.203Z,-0.86
2022-12-28T00:47:10.057Z,-0.90
2022-12-28T00:48:09.976Z,-0.91
2022-12-28T00:49:30.859Z,-0.82
2022-12-28T00:50:09.811Z,-0.90
2022-12-28T00:51:09.712Z,-0.95
2022-12-28T00:52:09.623Z,-0.91
2022-12-28T00:53:09.539Z,-0.98
2022-12-28T00:54:09.505Z,-0.84
2022-12-28T00:55:30.343Z,-0.99
2022-12-28T00:56:09.285Z,-0.87
2022-12-28T00:57:09.195Z,-0.91
2022-12-28T00:58:09.106Z,-0.79
2022-12-28T00:59:09.019Z,-0.96
2022-12-28T01:00:08.943Z,-0.90
2022-12-28T01:01:29.954Z,-0.86
2022-12-28T01:02:08.852Z,-0.87
2022-12-28T01:03:08.745Z,-1.01
2022-12-28T01:04:08.597Z,-0.98
2022-12-28T01:05:08.502Z,-1.05
2022-12-28T01:06:08.405Z,-0.95
2022-12-28T01:07:29.307Z,-0.86
2022-12-28T01:08:08.231Z,-0.91
2022-12-28T01:09:08.141Z,-0.79
2022-12-28T01:10:08.061Z,-0.79
2022-12-28T01:11:07.974Z,-0.77
2022-12-28T01:12:07.887Z,-0.79
2022-12-28T01:13:28.764Z,-0.66
2022-12-28T01:14:07.709Z,-0.72
2022-12-28T01:15:07.617Z,-0.74
2022-12-28T01:16:07.580Z,-0.74
2022-12-28T01:17:07.445Z,-0.71
2022-12-28T01:18:07.376Z,-0.71
2022-12-28T01:19:28.254Z,-0.69
2022-12-28T01:20:07.192Z,-0.64
2022-12-28T01:21:07.102Z,-0.65
2022-12-28T01:22:07.019Z,-0.71
2022-12-28T01:23:06.932Z,-0.66
2022-12-28T01:24:06.837Z,-0.69
2022-12-28T01:25:27.730Z,-0.71
2022-12-28T01:26:06.672Z,-0.72
2022-12-28T01:27:06.568Z,-0.64
2022-12-28T01:28:06.498Z,-0.68
2022-12-28T01:29:06.402Z,-0.61
2022-12-28T01:30:06.319Z,-0.59
2022-12-28T01:31:27.246Z,-0.51
2022-12-28T01:32:06.192Z,-0.58
2022-12-28T01:33:06.042Z,-0.59
2022-12-28T01:34:05.968Z,-0.61
2022-12-28T01:35:05.883Z,-0.51
2022-12-28T01:36:05.790Z,-0.58
2022-12-28T01:37:26.676Z,-0.47
2022-12-28T01:38:05.623Z,-0.65
2022-12-28T01:39:05.551Z,-0.58
2022-12-28T01:40:05.451Z,-0.59
2022-12-28T01:41:05.365Z,-0.68
2022-12-28T01:42:05.270Z,-0.61
2022-12-28T01:43:29.686Z,-0.59
2022-12-28T01:44:05.097Z,-0.65
2022-12-28T01:45:05.012Z,-0.54
2022-12-28T01:46:04.984Z,-0.58
2022-12-28T01:47:04.825Z,-0.48
2022-12-28T01:48:04.750Z,-0.56
2022-12-28T01:49:25.623Z,-0.53
2022-12-28T01:50:04.579Z,-0.48
2022-12-28T01:51:04.480Z,-0.47
2022-12-28T01:52:04.400Z,-0.40
2022-12-28T01:53:04.313Z,-0.47
2022-12-28T01:54:04.226Z,-0.38
2022-12-28T01:55:25.098Z,-0.37
2022-12-28T01:56:04.044Z,-0.46
2022-12-28T01:57:03.978Z,-0.43
2022-12-28T01:58:03.888Z,-0.37
2022-12-28T01:59:03.786Z,-0.35
2022-12-28T02:00:03.698Z,-0.37
2022-12-28T02:01:24.654Z,-0.47
2022-12-28T02:02:03.772Z,-0.46
2022-12-28T02:03:03.447Z,-0.41
2022-12-28T02:04:03.355Z,-0.41
2022-12-28T02:05:03.269Z,-0.33
2022-12-28T02:06:03.177Z,-0.33
2022-12-28T02:07:24.065Z,-0.35
2022-12-28T02:08:02.996Z,-0.33
2022-12-28T02:09:02.910Z,-0.33
2022-12-28T02:10:43.490Z,-0.25
2022-12-28T02:11:02.738Z,-0.25
2022-12-28T02:12:02.687Z,-0.12
2022-12-28T02:13:23.546Z,-0.19
2022-12-28T02:14:02.470Z,-0.19
2022-12-28T02:15:02.404Z,-0.17
2022-12-28T02:16:02.308Z,-0.15
2022-12-28T02:17:02.251Z,-0.08
2022-12-28T02:18:02.173Z,-0.10
2022-12-28T02:19:23.018Z,-0.08
2022-12-28T02:20:02.034Z,-0.02
2022-12-28T02:21:01.862Z,-0.07
2022-12-28T02:22:01.791Z,-0.07
2022-12-28T02:23:01.682Z,0.07
2022-12-28T02:24:01.608Z,-0.01
2022-12-28T02:25:22.496Z,-0.10
2022-12-28T02:26:01.452Z,-0.11
2022-12-28T02:27:01.340Z,-0.05
2022-12-28T02:28:01.285Z,-0.17
2022-12-28T02:29:01.171Z,-0.17
2022-12-28T02:30:01.089Z,-0.14
2022-12-28T02:31:21.974Z,-0.20
2022-12-28T02:32:00.906Z,-0.25
2022-12-28T02:33:00.811Z,-0.23
2022-12-28T02:34:00.746Z,-0.15
2022-12-28T02:35:00.651Z,-0.14
2022-12-28T02:36:00.570Z,-0.17
2022-12-28T02:37:21.457Z,-0.12
2022-12-28T02:38:00.375Z,-0.14
2022-12-28T02:39:00.305Z,-0.17
2022-12-28T02:40:00.250Z,-0.08
2022-12-28T02:41:00.136Z,-0.07
2022-12-28T02:42:00.044Z,-0.10
2022-12-28T02:43:20.926Z,-0.01
2022-12-28T02:43:59.859Z,0.04
2022-12-28T02:44:59.776Z,0.03
2022-12-28T02:45:59.751Z,0.03
2022-12-28T02:46:59.601Z,0.01
2022-12-28T02:47:59.514Z,0.03
2022-12-28T02:49:20.417Z,-0.01
2022-12-28T02:49:59.333Z,0.06
2022-12-28T02:50:59.262Z,0.04
2022-12-28T02:51:59.171Z,0.13
2022-12-28T02:52:59.072Z,0.13
2022-12-28T02:53:58.995Z,0.04
2022-12-28T02:55:19.889Z,0.04
2022-12-28T02:55:58.816Z,0.06
2022-12-28T02:56:58.726Z,0.04
2022-12-28T02:57:58.665Z,0.16
2022-12-28T02:58:58.570Z,0.22
2022-12-28T02:59:58.485Z,0.21
2022-12-28T03:01:19.439Z,0.24
2022-12-28T03:01:58.397Z,0.32
2022-12-28T03:02:58.295Z,0.28
2022-12-28T03:03:58.129Z,0.36
2022-12-28T03:04:58.036Z,0.43
2022-12-28T03:05:57.948Z,0.45
2022-12-28T03:07:18.836Z,0.52
2022-12-28T03:07:57.782Z,0.46
2022-12-28T03:08:57.703Z,0.57
2022-12-28T03:09:57.595Z,0.56
2022-12-28T03:10:57.515Z,0.62
2022-12-28T03:11:57.426Z,0.62
2022-12-28T03:13:18.330Z,0.66
2022-12-28T03:13:57.282Z,0.65
2022-12-28T03:14:57.170Z,0.64
2022-12-28T03:15:57.108Z,0.56
2022-12-28T03:16:57.007Z,0.57
2022-12-28T03:17:56.909Z,0.61
2022-12-28T03:19:17.825Z,0.61
2022-12-28T03:19:56.736Z,0.62
2022-12-28T03:20:56.649Z,0.59
2022-12-28T03:21:56.560Z,0.61
2022-12-28T03:22:56.490Z,0.56
2022-12-28T03:23:56.384Z,0.52
2022-12-28T03:25:17.277Z,0.53
2022-12-28T03:25:56.206Z,0.56
2022-12-28T03:26:56.129Z,0.64
2022-12-28T03:27:56.052Z,0.56
2022-12-28T03:28:55.951Z,0.50
2022-12-28T03:29:55.859Z,0.57
2022-12-28T03:31:16.818Z,0.50
2022-12-28T03:31:55.694Z,0.50
2022-12-28T03:32:55.604Z,0.50
2022-12-28T03:33:55.518Z,0.64
2022-12-28T03:34:55.454Z,0.71
2022-12-28T03:35:55.355Z,0.66
2022-12-28T03:37:16.245Z,0.74
2022-12-28T03:37:55.184Z,0.77
2022-12-28T03:38:55.087Z,0.71
2022-12-28T03:39:55.036Z,0.90
2022-12-28T03:40:54.912Z,0.90
2022-12-28T03:41:54.822Z,0.82
2022-12-28T03:43:15.722Z,0.93
2022-12-28T03:43:54.659Z,0.94
2022-12-28T03:44:54.598Z,1.01
2022-12-28T03:45:54.562Z,1.00
2022-12-28T03:46:54.396Z,1.11
2022-12-28T03:47:54.300Z,1.01
2022-12-28T03:49:15.199Z,1.04
2022-12-28T03:49:54.131Z,0.98
2022-12-28T03:50:54.053Z,1.02
2022-12-28T03:51:53.955Z,1.08
2022-12-28T03:52:53.870Z,1.04
2022-12-28T03:53:53.788Z,1.04
2022-12-28T03:55:14.679Z,1.05
2022-12-28T03:55:53.611Z,1.11
2022-12-28T03:56:53.540Z,1.16
2022-12-28T03:57:53.441Z,1.16
2022-12-28T03:58:53.369Z,1.10
2022-12-28T03:59:53.268Z,1.15
2022-12-28T04:01:14.263Z,1.22
2022-12-28T04:01:53.237Z,1.20
2022-12-28T04:02:53.072Z,1.15
2022-12-28T04:03:52.934Z,1.22
2022-12-28T04:04:52.831Z,1.26
2022-12-28T04:05:52.746Z,1.28
2022-12-28T04:07:13.643Z,1.37
2022-12-28T04:07:52.588Z,1.37
2022-12-28T04:08:52.491Z,1.38
2022-12-28T04:09:52.404Z,1.37
2022-12-28T04:10:52.340Z,1.47
2022-12-28T04:11:52.224Z,1.52
2022-12-28T04:13:13.122Z,1.50
2022-12-28T04:13:52.064Z,1.50
2022-12-28T04:14:51.973Z,1.59
2022-12-28T04:15:51.884Z,1.52
2022-12-28T04:16:51.826Z,1.61
2022-12-28T04:17:51.702Z,1.62
2022-12-28T04:19:12.612Z,1.55
2022-12-28T04:19:51.531Z,1.62
2022-12-28T04:20:51.458Z,1.61
2022-12-28T04:21:51.365Z,1.58
2022-12-28T04:22:51.282Z,1.58
2022-12-28T04:23:51.202Z,1.59
2022-12-28T04:25:12.087Z,1.50
2022-12-28T04:25:51.009Z,1.54
2022-12-28T04:26:50.929Z,1.50
2022-12-28T04:27:50.848Z,1.52
2022-12-28T04:28:50.758Z,1.46
2022-12-28T04:29:50.669Z,1.50
2022-12-28T04:31:11.630Z,1.52
2022-12-28T04:31:50.489Z,1.47
2022-12-28T04:32:50.422Z,1.54
2022-12-28T04:33:50.321Z,1.44
2022-12-28T04:34:50.238Z,1.48
2022-12-28T04:35:50.154Z,1.52
2022-12-28T04:37:11.048Z,1.52
2022-12-28T04:37:49.979Z,1.55
2022-12-28T04:38:49.903Z,1.54
2022-12-28T04:39:55.297Z,1.52
2022-12-28T04:40:49.729Z,1.58
2022-12-28T04:41:49.632Z,1.61
2022-12-28T04:43:10.553Z,1.56
2022-12-28T04:43:49.463Z,1.64
2022-12-28T04:44:49.382Z,1.62
2022-12-28T04:45:49.283Z,1.62
2022-12-28T04:46:49.285Z,1.56
2022-12-28T04:47:49.119Z,1.66
2022-12-28T04:49:10.017Z,1.58
2022-12-28T04:49:48.955Z,1.58
2022-12-28T04:50:48.873Z,1.62
2022-12-28T04:51:48.767Z,1.59
2022-12-28T04:52:48.701Z,1.62
2022-12-28T04:53:48.611Z,1.61
2022-12-28T04:55:09.503Z,1.62
2022-12-28T04:55:48.441Z,1.64
2022-12-28T04:56:48.346Z,1.65
2022-12-28T04:57:48.259Z,1.65
2022-12-28T04:58:48.185Z,1.69
2022-12-28T04:59:48.095Z,1.80
2022-12-28T05:01:09.098Z,1.79
2022-12-28T05:01:48.045Z,1.83
2022-12-28T05:02:47.871Z,1.82
2022-12-28T05:03:54.493Z,1.84
2022-12-28T05:04:47.649Z,1.87
2022-12-28T05:05:47.571Z,1.84
2022-12-28T05:07:08.486Z,1.87
2022-12-28T05:07:47.409Z,1.86
2022-12-28T05:08:47.325Z,1.94
2022-12-28T05:09:47.216Z,1.99
2022-12-28T05:10:47.146Z,1.99
2022-12-28T05:11:47.067Z,2.01
2022-12-28T05:13:07.949Z,2.05
2022-12-28T05:13:46.881Z,2.02
2022-12-28T05:14:46.788Z,2.05
2022-12-28T05:15:46.788Z,2.12
2022-12-28T05:16:46.639Z,2.06
2022-12-28T05:17:46.527Z,2.14
2022-12-28T05:19:07.426Z,2.26
2022-12-28T05:19:46.384Z,2.14
2022-12-28T05:20:46.285Z,2.19
2022-12-28T05:21:46.178Z,2.20
2022-12-28T05:22:46.105Z,2.19
2022-12-28T05:23:46.013Z,2.21
2022-12-28T05:25:06.906Z,2.24
2022-12-28T05:25:45.844Z,2.21
2022-12-28T05:26:45.771Z,2.21
2022-12-28T05:27:45.670Z,2.26
2022-12-28T05:28:45.586Z,2.28
2022-12-28T05:29:45.504Z,2.34
2022-12-28T05:31:06.440Z,2.37
2022-12-28T05:31:45.390Z,2.38
2022-12-28T05:32:45.260Z,2.34
2022-12-28T05:33:45.159Z,2.37
2022-12-28T05:34:45.079Z,2.44
2022-12-28T05:35:44.975Z,2.35
2022-12-28T05:37:05.879Z,2.41
2022-12-28T05:37:44.807Z,2.48
2022-12-28T05:38:44.727Z,2.42
2022-12-28T05:39:44.642Z,2.46
2022-12-28T05:40:44.552Z,2.55
2022-12-28T05:41:44.471Z,2.52
2022-12-28T05:43:05.355Z,2.50
2022-12-28T05:43:44.291Z,2.50
2022-12-28T05:44:44.216Z,2.56
2022-12-28T05:45:44.122Z,2.57
2022-12-28T05:46:44.075Z,2.62
2022-12-28T05:47:43.943Z,2.53
2022-12-28T05:49:04.842Z,2.53
2022-12-28T05:49:43.768Z,2.63
2022-12-28T05:50:43.696Z,2.66
2022-12-28T05:51:43.604Z,2.60
2022-12-28T05:52:43.516Z,2.60
2022-12-28T05:53:43.451Z,2.66
2022-12-28T05:55:04.324Z,2.74
2022-12-28T05:55:43.266Z,2.84
2022-12-28T05:56:43.176Z,2.75
2022-12-28T05:57:43.094Z,2.75
2022-12-28T05:58:43.020Z,2.84
2022-12-28T05:59:42.921Z,2.84
2022-12-28T06:01:03.830Z,2.86
2022-12-28T06:01:42.804Z,2.92
2022-12-28T06:02:46.378Z,2.89
2022-12-28T06:03:42.637Z,2.85
2022-12-28T06:04:42.493Z,2.88
2022-12-28T06:05:42.403Z,2.91
2022-12-28T06:07:03.294Z,2.89
2022-12-28T06:07:42.236Z,2.99
2022-12-28T06:08:42.152Z,2.92
2022-12-28T06:09:42.052Z,2.95
2022-12-28T06:10:41.992Z,2.98
2022-12-28T06:11:41.899Z,3.03
2022-12-28T06:13:02.782Z,3.07
2022-12-28T06:13:41.730Z,3.11
2022-12-28T06:14:41.637Z,3.03
2022-12-28T06:15:41.544Z,2.95
2022-12-28T06:16:41.517Z,3.03
2022-12-28T06:17:41.376Z,3.04
2022-12-28T06:19:02.288Z,3.01
2022-12-28T06:19:41.196Z,3.01
2022-12-28T06:20:41.112Z,3.01
2022-12-28T06:21:41.038Z,3.01
2022-12-28T06:22:40.949Z,3.01
2022-12-28T06:23:40.859Z,3.04
2022-12-28T06:25:01.749Z,3.07
2022-12-28T06:25:40.688Z,3.11
2022-12-28T06:26:40.599Z,3.14
2022-12-28T06:27:40.511Z,3.16
2022-12-28T06:28:40.434Z,3.11
2022-12-28T06:29:40.331Z,3.21
2022-12-28T06:31:01.235Z,3.24
2022-12-28T06:31:40.215Z,3.14
2022-12-28T06:32:40.103Z,3.28
2022-12-28T06:33:40.015Z,3.14
2022-12-28T06:34:39.926Z,3.25
2022-12-28T06:35:39.830Z,3.14
2022-12-28T06:37:00.734Z,3.22
2022-12-28T06:37:39.667Z,3.19
2022-12-28T06:38:39.573Z,3.21
2022-12-28T06:39:39.489Z,3.27
2022-12-28T06:41:11.800Z,3.29
2022-12-28T06:41:39.313Z,3.24
2022-12-28T06:43:00.216Z,3.19
2022-12-28T06:43:39.161Z,3.22
2022-12-28T06:44:44.402Z,3.16
2022-12-28T06:45:38.979Z,3.16
2022-12-28T06:46:38.907Z,3.24
2022-12-28T06:47:38.793Z,3.32
2022-12-28T06:48:59.691Z,3.32
2022-12-28T06:49:38.629Z,3.29
2022-12-28T06:50:40.260Z,3.31
2022-12-28T06:51:38.458Z,3.31
2022-12-28T06:52:38.373Z,3.34
2022-12-28T06:53:38.316Z,3.34
2022-12-28T06:54:59.179Z,3.31
2022-12-28T06:55:38.120Z,3.37
2022-12-28T06:56:38.026Z,3.34
2022-12-28T06:57:37.936Z,3.29
2022-12-28T06:58:37.892Z,3.37
2022-12-28T06:59:37.781Z,3.29
2022-12-28T07:00:58.736Z,3.43
2022-12-28T07:01:37.911Z,3.37
2022-12-28T07:02:37.673Z,3.37
2022-12-28T07:03:37.449Z,3.46
2022-12-28T07:04:37.346Z,3.43
2022-12-28T07:05:37.270Z,3.47
2022-12-28T07:06:58.152Z,3.50
2022-12-28T07:07:37.097Z,3.56
2022-12-28T07:08:37.004Z,3.56
2022-12-28T07:09:36.912Z,3.61
2022-12-28T07:10:36.833Z,3.65
2022-12-28T07:11:36.754Z,3.59
2022-12-28T07:12:57.629Z,3.48
2022-12-28T07:13:36.577Z,3.53
2022-12-28T07:14:36.477Z,3.53
2022-12-28T07:15:36.409Z,3.65
2022-12-28T07:16:57.311Z,3.65
2022-12-28T07:17:57.202Z,3.65
2022-12-28T07:18:36.150Z,3.57
2022-12-28T07:19:36.067Z,3.66
2022-12-28T07:20:40.407Z,3.69
2022-12-28T07:21:35.902Z,3.65
2022-12-28T07:22:35.811Z,3.75
2022-12-28T07:23:56.698Z,3.66
2022-12-28T07:24:35.654Z,3.65
2022-12-28T07:25:35.564Z,3.71
2022-12-28T07:26:35.468Z,3.77
2022-12-28T07:27:35.381Z,3.66
2022-12-28T07:28:35.293Z,3.74
2022-12-28T07:29:56.204Z,3.79
2022-12-28T07:30:35.135Z,3.74
2022-12-28T07:31:40.024Z,3.64
2022-12-28T07:32:34.960Z,3.68
2022-12-28T07:33:34.866Z,3.69
2022-12-28T07:34:34.775Z,3.75
2022-12-28T07:35:55.664Z,3.79
2022-12-28T07:36:34.608Z,3.82
2022-12-28T07:37:34.517Z,3.90
2022-12-28T07:38:34.448Z,3.90
2022-12-28T07:39:34.357Z,3.97
2022-12-28T07:40:34.272Z,3.90
2022-12-28T07:41:55.161Z,3.89
2022-12-28T07:42:34.095Z,3.98
2022-12-28T07:43:34.019Z,4.04
2022-12-28T07:44:38.014Z,4.01
2022-12-28T07:45:33.851Z,4.00
2022-12-28T07:46:33.878Z,4.01
2022-12-28T07:47:54.645Z,3.98
2022-12-28T07:48:33.591Z,3.97
2022-12-28T07:49:33.490Z,4.07
2022-12-28T07:50:37.614Z,4.07
2022-12-28T07:51:33.337Z,3.98
2022-12-28T07:52:33.241Z,4.04
2022-12-28T07:53:54.133Z,4.07
2022-12-28T07:54:33.081Z,4.07
2022-12-28T07:55:33.003Z,4.02
2022-12-28T07:56:53.889Z,4.10
2022-12-28T07:57:32.807Z,4.05
2022-12-28T07:58:53.716Z,4.12
2022-12-28T07:59:32.653Z,4.23
2022-12-28T08:00:32.551Z,4.22
2022-12-28T08:01:32.737Z,4.25
2022-12-28T08:02:32.428Z,4.26
2022-12-28T08:03:32.372Z,4.20
2022-12-28T08:04:53.197Z,4.25
2022-12-28T08:05:32.140Z,4.20
2022-12-28T08:06:32.049Z,4.22
2022-12-28T08:07:31.957Z,4.23
2022-12-28T08:08:31.868Z,4.16
2022-12-28T08:09:31.804Z,4.25
2022-12-28T08:10:52.691Z,4.18
2022-12-28T08:11:31.658Z,4.20
2022-12-28T08:12:31.531Z,4.30
2022-12-28T08:13:31.455Z,4.30
2022-12-28T08:14:31.367Z,4.36
2022-12-28T08:15:31.336Z,4.34
2022-12-28T08:16:52.165Z,4.41
2022-12-28T08:17:31.113Z,4.37
2022-12-28T08:18:31.031Z,4.36
2022-12-28T08:19:30.944Z,4.47
2022-12-28T08:20:30.851Z,4.44
2022-12-28T08:21:30.765Z,4.47
2022-12-28T08:22:51.653Z,4.43
2022-12-28T08:23:30.607Z,4.47
2022-12-28T08:24:30.537Z,4.46
2022-12-28T08:25:30.441Z,4.46
2022-12-28T08:26:30.356Z,4.50
2022-12-28T08:27:33.581Z,4.55
2022-12-28T08:28:51.155Z,4.55
2022-12-28T08:29:30.089Z,4.56
2022-12-28T08:30:29.996Z,4.54
2022-12-28T08:31:30.041Z,4.54
2022-12-28T08:32:29.842Z,4.56
2022-12-28T08:33:29.765Z,4.55
2022-12-28T08:34:50.642Z,4.58
2022-12-28T08:35:29.578Z,4.55
2022-12-28T08:36:29.490Z,4.55
2022-12-28T08:37:29.420Z,4.56
2022-12-28T08:38:29.316Z,4.55
2022-12-28T08:39:29.255Z,4.65
2022-12-28T08:40:57.167Z,4.52
2022-12-28T08:41:29.087Z,4.54
2022-12-28T08:42:29.012Z,4.56
2022-12-28T08:43:28.908Z,4.61
2022-12-28T08:44:28.819Z,4.61
2022-12-28T08:45:28.857Z,4.58
2022-12-28T08:46:49.751Z,4.55
2022-12-28T08:47:28.574Z,4.59
2022-12-28T08:48:28.468Z,4.58
2022-12-28T08:49:28.420Z,4.68
2022-12-28T08:50:31.757Z,4.62
2022-12-28T08:51:28.229Z,4.62
2022-12-28T08:52:49.127Z,4.65
2022-12-28T08:53:28.059Z,4.76
2022-12-28T08:54:27.964Z,4.72
2022-12-28T08:55:27.897Z,4.69
2022-12-28T08:56:27.851Z,4.69
2022-12-28T08:57:27.722Z,4.73
2022-12-28T08:58:48.637Z,4.72
2022-12-28T08:59:27.559Z,4.74
2022-12-28T09:00:27.452Z,4.74
2022-12-28T09:01:27.555Z,4.77
2022-12-28T09:02:27.429Z,4.84
2022-12-28T09:03:27.235Z,4.91
2022-12-28T09:04:48.091Z,4.92
2022-12-28T09:05:27.055Z,4.93
2022-12-28T09:06:26.949Z,4.93
2022-12-28T09:07:26.875Z,4.96
2022-12-28T09:08:26.796Z,4.98
2022-12-28T09:09:26.699Z,5.00
2022-12-28T09:10:47.597Z,4.96
2022-12-28T09:11:26.537Z,5.11
2022-12-28T09:12:26.445Z,5.05
2022-12-28T09:13:26.368Z,5.10
2022-12-28T09:14:26.276Z,5.05
2022-12-28T09:15:26.208Z,5.06
2022-12-28T09:16:47.093Z,5.11
2022-12-28T09:17:26.039Z,5.16
2022-12-28T09:18:25.946Z,5.20
2022-12-28T09:19:25.873Z,5.18
2022-12-28T09:20:25.775Z,5.20
2022-12-28T09:21:25.685Z,5.16
2022-12-28T09:22:46.577Z,5.23
2022-12-28T09:23:25.515Z,5.23
2022-12-28T09:24:25.444Z,5.29
2022-12-28T09:25:25.357Z,5.28
2022-12-28T09:26:25.272Z,5.39
2022-12-28T09:27:25.184Z,5.42
2022-12-28T09:28:46.067Z,5.35
2022-12-28T09:29:25.019Z,5.44
2022-12-28T09:30:24.927Z,5.52
2022-12-28T09:31:24.862Z,5.50
2022-12-28T09:32:24.752Z,5.41
2022-12-28T09:33:24.682Z,5.41
2022-12-28T09:34:45.572Z,5.53
2022-12-28T09:35:24.522Z,5.53
2022-12-28T09:36:24.426Z,5.57
2022-12-28T09:37:24.327Z,5.50
2022-12-28T09:38:24.249Z,5.56
2022-12-28T09:39:24.251Z,5.62
2022-12-28T09:40:45.067Z,5.67
2022-12-28T09:41:24.008Z,5.68
2022-12-28T09:42:23.930Z,5.77
2022-12-28T09:43:23.843Z,5.77
2022-12-28T09:44:23.753Z,5.83
2022-12-28T09:45:23.669Z,5.86
2022-12-28T09:46:48.760Z,5.88
2022-12-28T09:47:23.506Z,5.88
2022-12-28T09:48:23.418Z,5.83
2022-12-28T09:49:23.333Z,5.85
2022-12-28T09:50:23.236Z,5.86
2022-12-28T09:51:23.170Z,5.96
2022-12-28T09:52:49.517Z,6.00
2022-12-28T09:53:22.993Z,5.95
2022-12-28T09:54:22.924Z,5.95
2022-12-28T09:55:22.819Z,6.03
2022-12-28T09:56:22.736Z,6.00
2022-12-28T09:57:22.663Z,6.03
2022-12-28T09:58:47.737Z,6.15
2022-12-28T09:59:22.489Z,6.17
2022-12-28T10:00:22.406Z,6.24
2022-12-28T10:01:22.451Z,6.15
2022-12-28T10:02:22.343Z,6.24
2022-12-28T10:03:22.173Z,6.34
2022-12-28T10:04:49.008Z,6.34
2022-12-28T10:05:21.993Z,6.37
2022-12-28T10:06:21.891Z,6.41
2022-12-28T10:07:21.819Z,6.41
2022-12-28T10:08:21.741Z,6.42
2022-12-28T10:09:21.647Z,6.44
2022-12-28T10:10:46.795Z,6.52
2022-12-28T10:11:21.500Z,6.54
2022-12-28T10:12:21.393Z,6.57
2022-12-28T10:13:53.154Z,6.59
2022-12-28T10:14:21.233Z,6.66
2022-12-28T10:15:21.158Z,6.65
2022-12-28T10:16:48.345Z,6.66
2022-12-28T10:17:20.979Z,6.68
2022-12-28T10:18:20.891Z,6.70
2022-12-28T10:19:20.818Z,6.72
2022-12-28T10:20:20.740Z,6.70
2022-12-28T10:21:21.180Z,6.83
2022-12-28T10:22:46.348Z,6.80
2022-12-28T10:23:20.489Z,6.80
2022-12-28T10:24:31.267Z,6.87
2022-12-28T10:25:20.310Z,6.88
2022-12-28T10:26:20.229Z,6.93
2022-12-28T10:27:20.145Z,6.94
2022-12-28T10:28:47.116Z,6.98
2022-12-28T10:29:19.996Z,6.94
2022-12-28T10:30:19.893Z,6.91
2022-12-28T10:31:19.834Z,7.01
2022-12-28T10:32:19.728Z,6.94
2022-12-28T10:33:19.648Z,7.02
2022-12-28T10:34:40.545Z,6.91
2022-12-28T10:35:19.478Z,6.94
2022-12-28T10:36:19.392Z,6.98
2022-12-28T10:37:19.306Z,6.93
2022-12-28T10:38:19.227Z,7.08
2022-12-28T10:39:19.148Z,6.96
2022-12-28T10:40:40.031Z,7.08
2022-12-28T10:41:18.986Z,7.13
2022-12-28T10:42:18.892Z,7.09
2022-12-28T10:43:18.810Z,7.08
2022-12-28T10:45:18.648Z,7.11
2022-12-28T10:46:39.570Z,7.20
2022-12-28T10:47:18.497Z,7.20
2022-12-28T10:48:18.463Z,7.16
2022-12-28T10:49:18.320Z,7.20
2022-12-28T10:50:36.593Z,7.20
2022-12-28T10:51:18.143Z,7.17
2022-12-28T10:52:39.050Z,7.29
2022-12-28T10:53:17.983Z,7.31
2022-12-28T10:54:17.894Z,7.31
2022-12-28T10:55:17.802Z,7.38
2022-12-28T10:56:17.719Z,7.30
2022-12-28T10:57:17.650Z,7.35
2022-12-28T10:58:38.534Z,7.39
2022-12-28T10:59:17.492Z,7.31
2022-12-28T11:00:17.398Z,7.41
2022-12-28T11:01:17.864Z,7.41
2022-12-28T11:02:17.383Z,7.41
2022-12-28T11:03:17.162Z,7.45
2022-12-28T11:04:38.041Z,7.45
2022-12-28T11:05:16.982Z,7.47
2022-12-28T11:06:19.897Z,7.59
2022-12-28T11:07:16.813Z,7.52
2022-12-28T11:08:16.750Z,7.57
2022-12-28T11:09:16.662Z,7.59
2022-12-28T11:10:37.579Z,7.52
2022-12-28T11:11:16.486Z,7.68
2022-12-28T11:12:16.404Z,7.57
2022-12-28T11:13:21.606Z,7.62
2022-12-28T11:14:16.233Z,7.55
2022-12-28T11:15:16.149Z,7.57
2022-12-28T11:16:37.075Z,7.68
2022-12-28T11:17:15.994Z,7.64
2022-12-28T11:18:15.904Z,7.72
2022-12-28T11:19:15.808Z,7.63
2022-12-28T11:20:15.788Z,7.73
2022-12-28T11:21:15.655Z,7.70
2022-12-28T11:22:36.550Z,7.82
2022-12-28T11:23:15.489Z,7.79
2022-12-28T11:24:15.428Z,7.72
2022-12-28T11:25:15.313Z,7.81
2022-12-28T11:26:15.240Z,7.85
2022-12-28T11:27:15.168Z,7.78
2022-12-28T11:28:36.063Z,7.81
2022-12-28T11:29:14.991Z,7.82
2022-12-28T11:30:17.469Z,7.86
2022-12-28T11:31:14.865Z,7.88
2022-12-28T11:32:14.741Z,7.90
2022-12-28T11:33:14.659Z,7.85
2022-12-28T11:34:35.559Z,7.81
2022-12-28T11:35:14.496Z,7.86
2022-12-28T11:36:14.414Z,7.82
2022-12-28T11:37:14.340Z,7.81
2022-12-28T11:38:14.255Z,7.83
2022-12-28T11:39:14.163Z,7.81
2022-12-28T11:40:35.065Z,7.90
2022-12-28T11:41:14.001Z,7.81
2022-12-28T11:42:38.869Z,7.82
2022-12-28T11:43:13.824Z,7.88
2022-12-28T11:44:13.748Z,7.82
2022-12-28T11:45:13.681Z,7.76
2022-12-28T11:46:34.565Z,7.81
2022-12-28T11:47:13.515Z,7.85
2022-12-28T11:48:13.421Z,7.83
2022-12-28T11:49:13.330Z,7.86
2022-12-28T11:50:13.260Z,7.99
2022-12-28T11:51:13.181Z,7.93
2022-12-28T11:52:34.095Z,8.01
2022-12-28T11:53:14.093Z,8.01
2022-12-28T11:54:12.923Z,8.12
2022-12-28T11:55:12.844Z,8.14
2022-12-28T11:56:12.768Z,8.14
2022-12-28T11:57:12.672Z,8.07
2022-12-28T11:58:33.592Z,8.21
2022-12-28T11:59:12.503Z,8.30
2022-12-28T12:00:17.151Z,8.29
2022-12-28T12:01:12.371Z,8.36
2022-12-28T12:02:12.355Z,8.36
2022-12-28T12:03:12.239Z,8.33
2022-12-28T12:04:33.092Z,8.34
2022-12-28T12:05:12.015Z,8.42
2022-12-28T12:06:11.948Z,8.48
2022-12-28T12:07:11.866Z,8.36
2022-12-28T12:08:11.786Z,8.37
2022-12-28T12:09:11.698Z,8.39
2022-12-28T12:10:32.580Z,8.47
2022-12-28T12:11:11.530Z,8.47
2022-12-28T12:12:17.234Z,8.44
2022-12-28T12:13:11.365Z,8.48
2022-12-28T12:14:11.287Z,8.40
2022-12-28T12:15:11.201Z,8.55
2022-12-28T12:16:32.141Z,8.58
2022-12-28T12:17:11.069Z,8.60
2022-12-28T12:18:10.950Z,8.65
2022-12-28T12:19:10.861Z,8.65
2022-12-28T12:20:10.798Z,8.61
2022-12-28T12:21:15.865Z,8.66
2022-12-28T12:22:31.599Z,8.62
2022-12-28T12:23:10.533Z,8.75
2022-12-28T12:24:10.445Z,8.62
2022-12-28T12:25:10.372Z,8.66
2022-12-28T12:26:10.303Z,8.75
2022-12-28T12:27:12.223Z,8.69
2022-12-28T12:28:31.110Z,8.70
2022-12-28T12:29:10.056Z,8.69
2022-12-28T12:30:09.967Z,8.76
2022-12-28T12:31:09.998Z,8.66
2022-12-28T12:32:09.798Z,8.66
2022-12-28T12:33:09.726Z,8.66
2022-12-28T12:34:30.613Z,8.60
2022-12-28T12:35:09.574Z,8.57
2022-12-28T12:36:09.483Z,8.55
2022-12-28T12:37:09.379Z,8.55
2022-12-28T12:38:09.312Z,8.51
2022-12-28T12:39:09.234Z,8.58
2022-12-28T12:40:30.125Z,8.52
2022-12-28T12:41:09.057Z,8.61
2022-12-28T12:42:08.979Z,8.58
2022-12-28T12:43:08.909Z,8.65
2022-12-28T12:44:08.822Z,8.62
2022-12-28T12:45:08.748Z,8.62
2022-12-28T12:46:29.699Z,8.77
2022-12-28T12:47:08.570Z,8.77
2022-12-28T12:48:08.495Z,8.79
2022-12-28T12:49:08.391Z,8.82
2022-12-28T12:50:08.333Z,8.84
2022-12-28T12:51:08.231Z,8.93
2022-12-28T12:52:29.158Z,8.91
2022-12-28T12:53:08.082Z,8.94
2022-12-28T12:54:08.006Z,8.95
2022-12-28T12:55:07.912Z,9.06
2022-12-28T12:56:07.838Z,8.91
2022-12-28T12:57:07.752Z,9.02
2022-12-28T12:58:28.655Z,9.05
2022-12-28T12:59:07.582Z,9.09
2022-12-28T13:00:07.499Z,9.17
2022-12-28T13:01:07.462Z,9.17
2022-12-28T13:02:07.488Z,9.19
2022-12-28T13:03:07.342Z,9.19
2022-12-28T13:04:28.149Z,9.19
2022-12-28T13:05:07.098Z,9.27
2022-12-28T13:06:07.005Z,9.25
2022-12-28T13:07:06.933Z,9.19
2022-12-28T13:08:06.853Z,9.25
2022-12-28T13:09:06.787Z,9.13
2022-12-28T13:10:27.695Z,9.22
2022-12-28T13:11:06.596Z,9.31
2022-12-28T13:12:06.533Z,9.28
2022-12-28T13:13:06.429Z,9.28